Logo AVAMET
Benvolgut visitant, si us plau, ingressa Recuperar contrasenya
AVAMET paisatges

Inforatge Bellreguard

Dades diàries. Acumulats / Últims 30 dies disponibles

Data Temperatura (°C) Humitat rel. (%) Pressió rel. (hPa) Vent (km/h) Precipitació
Mínima Mitjana Màxima Amplitud
tèrmica
Mínima Mitjana Màxima Mínima Mitjana Màxima Predom. Mitjana Ràfega
màxima
Total
(mm)
Índex-n
Mínima Mitjana Màxima Mínima Mitjana Màxima n
0 a 1
P0 max
mm 5'
Dades mensuals acumulades fins l'últim dia disponible
04/2020 11,7 11,7 11,7 13,8 15,1 17,2 19,2 7,5 63 82 90 1.010 1.012 1.015   5,6 24,1 11,0
Dades anuals acumulades fins l'últim dia disponible
2020 3,8 9,9 17,7 13,6 11,0 18,2 27,5 23,7 0 72 96 1.000 1.022 1.034   7,1 85,3 304,6
Últims 30 dies disponibles
02-04-2020 11,7     12,9     15,1 3,4 76 85 90 1.011 1.012 1.015 NNE 4,8 22,5 3,8
01-04-2020 11,7     14,6     19,2 7,5 63 80 89 1.010 1.011 1.013 W 6,4 24,1 7,2 0,12 0,40
31-03-2020 8,1     10,7     13,8 5,7 81 87 91 1.010 1.011 1.014 O 7,4 35,4 8,0 0,45 0,60
30-03-2020 9,4     12,9     17,5 8,1 65 76 90 1.013 1.014 1.015 E 5,8 25,7 2,4
29-03-2020 8,3     10,7     17,9 9,6 49 49 50 1.017 1.017 1.018 SW 8,0 24,1 0,0
28-03-2020 6,4     8,8     14,8 8,4 0 84 91 1.017 1.017 1.019 WSW 5,3 19,3 0,0
27-03-2020 7,8     9,4     11,0 3,2 75 86 91 1.012 1.014 1.017 W 4,7 22,5 5,0 0,58 0,80
26-03-2020 7,3     11,1     16,1 8,8 45 74 91 1.007 1.010 1.014 NE 3,7 24,1 0,2
25-03-2020 8,9     10,1     13,0 4,1 0 84 90 1.014 1.017 1.018 W 4,0 32,2 11,4 0,42 0,80
24-03-2020 12,8     13,9     14,7 1,9 68 82 91 1.015 1.016 1.018 E 13,7 40,2 1,8
23-03-2020 10,6     13,6     16,0 5,4 82 90 94 1.014 1.015 1.017 E 4,7 25,7 5,2 0,33 1,00
22-03-2020 10,4     12,2     14,2 3,8 82 90 93 1.011 1.012 1.015 W 4,5 20,9 32,2 0,58 3,40
21-03-2020 10,6     12,8     13,9 3,3 84 89 92 1.012 1.014 1.017 NNW 4,2 29,0 15,4 0,47 1,70
20-03-2020 13,1     14,3     15,7 2,6 75 83 89 1.017 1.018 1.020 NE 5,1 19,3 0,0
19-03-2020 12,9     14,4     16,8 3,9 78 87 90 1.020 1.022 1.025 E 5,0 22,5 0,0
18-03-2020 13,3     14,3     15,5 2,2 78 87 92 1.025 1.026 1.028 NE 6,0 25,7 0,0
17-03-2020 9,3     11,9     14,6 5,3 85 91 94 1.020 1.024 1.028 W 5,8 27,4 13,4 0,20 0,50
16-03-2020 9,1     12,4     16,4 7,3 79 85 88 1.011 1.014 1.020 W 3,7 19,3 4,2
15-03-2020 11,6     15,1     19,2 7,6 62 79 90 1.013 1.017 1.020 E 6,0 37,0 0,0
14-03-2020 10,9     14,6     17,9 7,0 69 83 91 1.018 1.020 1.022 E 4,5 24,1 0,0
13-03-2020 11,8     14,5     17,8 6,0 71 84 91 1.018 1.019 1.021 NNE 4,7 22,5 0,0
12-03-2020 11,2     15,8     20,4 9,2 58 76 90 1.016 1.019 1.022 NE 3,4 12,9 0,0
11-03-2020 10,8     16,7     22,4 11,6 41 67 88 1.021 1.022 1.023 E 4,5 19,3 0,0
10-03-2020 9,8     16,1     22,4 12,6 41 59 75 1.022 1.024 1.026 SW 4,7 22,5 0,0
09-03-2020 13,8     17,1     22,3 8,5 32 49 73 1.020 1.021 1.023 W 5,3 29,0 0,0
08-03-2020 9,7     15,8     21,8 12,1 28 53 76 1.020 1.022 1.024 SW 7,2 24,1 0,0
07-03-2020 10,7     14,2     19,6 8,9 32 43 64 1.021 1.022 1.024 WNW 10,1 40,2 0,0
06-03-2020 13,0     15,4     18,7 5,7 27 45 63 1.012 1.015 1.021 W 13,7 48,3 0,0
05-03-2020 16,2     19,5     24,9 8,7 37 48 58 1.007 1.011 1.016 W 16,4 64,4 0,0
04-03-2020 17,7     20,1     23,5 5,8 42 54 65 1.016 1.017 1.019 W 16,6 46,7 0,0
Últims 13 mesos disponibles
03/2020 6,4 11,2 17,7 14,3 11,0 18,1 24,9 18,5 41 71 91 1.007 1.017 1.026 W 7,8 85,3 99,2
02/2020 6,3 10,3 15,3 15,1 14,3 20,7 27,5 21,2 36 68 86 1.014 1.025 1.033 SW 6,0 43,5 1,0
01/2020 3,8 8,0 15,2 11,5 12,1 16,1 22,3 18,5 54 75 94 1.015 1.025 1.032 SW 7,4 75,6 193,4
12/2019 6,0 11,2 19,7 14,4 13,2 18,4 26,3 20,3 42 69 90 1.002 1.019 1.033 W 8,6 91,7 192,8
11/2019 5,2 12,6 21,5 16,0 15,5 19,9 27,3 22,1 45 57 77 999 1.011 1.018 W 11,2 66,0 5,6
10/2019 12,1 16,4 20,8 20,4 16,0 25,0 32,1 20,0 45 69 86 1.008 1.016 1.022 SW 5,9 51,5 55,8
09/2019 14,6 20,3 23,2 24,0 23,6 27,9 35,6 21,0 48 76 91 1.010 1.017 1.023 S 6,5 66,7 72,0
08/2019 18,3 22,6 27,1 27,0 27,7 31,7 40,0 21,7 50 71 82 1.010 1.015 1.019 SSE 6,2 48,2 27,0
07/2019 20,8 23,0 26,3 27,2 28,0 31,6 37,6 16,8 42 68 80 1.005 1.013 1.021 SSE 6,7 58,0 0,4
06/2019 13,2 18,0 22,6 23,1 20,7 27,6 34,1 20,9 37 66 82 1.009 1.015 1.022 SSE 6,0 46,7 0,0
05/2019 9,6 14,9 22,2 19,5 18,5 24,3 31,6 22,0 35 67 81 1.006 1.015 1.024 SSE 6,4 51,9 5,6
04/2019 8,8 12,2 17,0 16,0 14,6 20,1 29,7 20,9 38 68 94 1.000 1.013 1.025 SSE 7,8 51,9 204,8
03/2019 6,2 9,5 16,0 14,8 14,1 19,9 28,6 22,4 30 61 93 1.011 1.023 1.030 SSE 5,8 61,1 55,4
Tots els anys disponibles
2019 1,4 14,7 27,1 18,9 11,4 23,4 40,0 38,6 30 66 94 995 1.017 1.034 SSE 7,2 91,7 621,8
Temperatura (°C)
Humitat relativa (%)
Velocitat del vent i ràfega màxima (km/h)
Direcció del vent (°)
Pressió (hPa)
Precipitació (mm)
Nota sobre les dades: s'avisa a l'usuari de la provisionalitat i no oficialitat d'aquestes dades
Logo AVAMET blanc
Web allotjada a Sollutia
Llicència de Creative CommonsLa web d'AVAMET i els seus continguts estan subjectes a una llicència de
Reconeixement - No Comercial - Compartir igual
Últimes estacions:  Altea - Com. Regants (Soci), Almoines (Inforatge), Beniparrell (Inforatge), Albal (Inforatge), Almussafes - Parc Industrial (Inforatge), La Vilavella (Soci), la Serratella (soci) - - -